< < Back
Terminal Aerodrome Forecast


Current Version              Previous Versions:   1  2  3  4  5  6  7  8  9  

Terminal Aerodrome Forecast

550
FTUS44 KBMX 182300
TAFBHM
TAF
KBHM 182325Z 1900/1924 06007KT P6SM VCSH OVC080
     FM190200 02005KT P6SM OVC050
     FM191300 01010G18KT P6SM SCT020 OVC080=

Latest METAR

574
SAUS70 KWBC 191700 RRD
MTRBHM
METAR KBHM 191653Z 02012G19KT 10SM BKN070 23/06 A3014 RMK AO2 SLP202
T02280056


USA.gov is the U.S. government's official web portal to all federal, state and local government web resources and services.